createdAt,value
2023-02-17T00:01:26.018Z,53.41
2023-02-17T00:03:53.499Z,54.54
2023-02-17T00:06:22.849Z,54.83
2023-02-17T00:08:49.865Z,54.95
2023-02-17T00:11:16.916Z,55.67
2023-02-17T00:13:44.120Z,56.48
2023-02-17T00:16:15.849Z,57.02
2023-02-17T00:18:42.698Z,57.83
2023-02-17T00:21:16.919Z,57.96
2023-02-17T00:23:44.269Z,58.34
2023-02-17T00:26:11.134Z,58.87
2023-02-17T00:28:38.659Z,58.84
2023-02-17T00:31:07.656Z,58.52
2023-02-17T00:33:34.842Z,58.81
2023-02-17T00:36:07.256Z,58.64
2023-02-17T00:38:34.729Z,58.70
2023-02-17T00:41:01.506Z,58.16
2023-02-17T00:43:30.426Z,58.31
2023-02-17T00:45:57.282Z,58.41
2023-02-17T00:48:24.403Z,57.92
2023-02-17T00:50:51.307Z,57.87
2023-02-17T00:53:18.117Z,57.37
2023-02-17T00:55:44.862Z,57.26
2023-02-17T00:58:11.706Z,56.66
2023-02-17T01:00:38.474Z,56.50
2023-02-17T01:03:05.350Z,55.98
2023-02-17T01:05:32.206Z,56.16
2023-02-17T01:07:59.114Z,55.62
2023-02-17T01:10:27.437Z,54.98
2023-02-17T01:12:54.344Z,54.64
2023-02-17T01:15:21.907Z,54.54
2023-02-17T01:17:49.522Z,54.66
2023-02-17T01:20:16.591Z,54.31
2023-02-17T01:22:43.442Z,53.96
2023-02-17T01:25:10.303Z,53.53
2023-02-17T01:27:37.220Z,53.40
2023-02-17T01:30:05.439Z,53.62
2023-02-17T01:32:32.436Z,53.84
2023-02-17T01:34:59.170Z,54.19
2023-02-17T01:37:25.973Z,54.48
2023-02-17T01:39:54.530Z,55.62
2023-02-17T01:42:21.323Z,55.94
2023-02-17T01:45:19.537Z,56.97
2023-02-17T01:47:50.706Z,57.88
2023-02-17T01:50:19.601Z,57.95
2023-02-17T01:52:46.633Z,58.29
2023-02-17T01:55:16.535Z,58.38
2023-02-17T01:57:44.576Z,59.16
2023-02-17T02:00:13.169Z,59.37
2023-02-17T02:02:42.543Z,59.59
2023-02-17T02:05:13.000Z,59.72
2023-02-17T02:07:41.762Z,60.36
2023-02-17T02:10:11.223Z,60.48
2023-02-17T02:12:40.490Z,60.98
2023-02-17T02:15:11.309Z,61.03
2023-02-17T02:17:59.560Z,61.22
2023-02-17T02:20:45.128Z,61.55
2023-02-17T02:23:30.106Z,61.97
2023-02-17T02:26:05.922Z,61.97
2023-02-17T02:29:14.220Z,62.39
2023-02-17T02:32:17.488Z,62.76
2023-02-17T02:35:25.383Z,62.57
2023-02-17T02:37:55.230Z,62.72
2023-02-17T02:40:25.296Z,62.88
2023-02-17T02:42:52.214Z,63.22
2023-02-17T02:45:19.379Z,63.39
2023-02-17T02:47:54.651Z,63.90
2023-02-17T02:50:35.644Z,63.96
2023-02-17T02:53:09.255Z,64.02
2023-02-17T02:55:42.741Z,64.11
2023-02-17T02:58:19.241Z,64.65
2023-02-17T03:01:17.469Z,64.29
2023-02-17T03:04:19.052Z,64.37
2023-02-17T03:06:53.842Z,64.94
2023-02-17T03:09:23.321Z,64.67
2023-02-17T03:11:50.500Z,64.89
2023-02-17T03:14:19.922Z,64.88
2023-02-17T03:16:47.856Z,65.34
2023-02-17T03:19:15.811Z,65.41
2023-02-17T03:21:48.455Z,65.31
2023-02-17T03:24:15.704Z,65.53
2023-02-17T03:26:43.314Z,65.61
2023-02-17T03:29:10.197Z,65.28
2023-02-17T03:31:37.474Z,65.35
2023-02-17T03:34:04.407Z,65.38
2023-02-17T03:36:31.232Z,65.60
2023-02-17T03:38:58.428Z,65.97
2023-02-17T03:41:25.490Z,65.78
2023-02-17T03:43:52.322Z,65.81
2023-02-17T03:46:19.140Z,66.36
2023-02-17T03:48:45.868Z,66.08
2023-02-17T03:51:18.346Z,66.31
2023-02-17T03:53:45.967Z,66.39
2023-02-17T03:56:13.837Z,66.36
2023-02-17T03:58:41.316Z,66.25
2023-02-17T04:01:09.537Z,66.76
2023-02-17T04:03:36.931Z,66.70
2023-02-17T04:06:04.548Z,66.56
2023-02-17T04:08:31.922Z,66.56
2023-02-17T04:11:00.477Z,66.67
2023-02-17T04:13:27.420Z,66.96
2023-02-17T04:15:54.584Z,66.89
2023-02-17T04:18:22.525Z,67.10
2023-02-17T04:20:50.445Z,67.08
2023-02-17T04:23:17.946Z,67.02
2023-02-17T04:25:45.022Z,67.19
2023-02-17T04:28:13.472Z,67.51
2023-02-17T04:30:40.496Z,67.19
2023-02-17T04:33:07.267Z,67.47
2023-02-17T04:35:33.995Z,67.04
2023-02-17T04:38:00.846Z,67.34
2023-02-17T04:40:27.538Z,67.54
2023-02-17T04:42:54.280Z,67.58
2023-02-17T04:45:21.073Z,67.40
2023-02-17T04:47:47.900Z,67.81
2023-02-17T04:50:14.603Z,67.49
2023-02-17T04:52:41.345Z,67.92
2023-02-17T04:55:08.797Z,67.48
2023-02-17T04:57:35.613Z,67.48
2023-02-17T05:00:02.561Z,67.38
2023-02-17T05:02:30.495Z,67.74
2023-02-17T05:04:57.495Z,67.18
2023-02-17T05:07:24.401Z,67.63
2023-02-17T05:09:51.016Z,67.35
2023-02-17T05:12:17.835Z,67.42
2023-02-17T05:14:44.544Z,67.59
2023-02-17T05:17:11.405Z,67.68
2023-02-17T05:19:38.060Z,67.41
2023-02-17T05:22:04.790Z,67.75
2023-02-17T05:24:31.582Z,67.75
2023-02-17T05:26:58.729Z,67.79
2023-02-17T05:29:25.458Z,67.78
2023-02-17T05:31:52.239Z,68.23
2023-02-17T05:34:18.987Z,67.78
2023-02-17T05:36:45.759Z,67.90
2023-02-17T05:39:12.830Z,67.86
2023-02-17T05:41:39.583Z,68.07
2023-02-17T05:44:06.351Z,68.14
2023-02-17T05:46:33.135Z,68.23
2023-02-17T05:48:59.840Z,68.58
2023-02-17T05:51:26.554Z,68.45
2023-02-17T05:53:53.194Z,68.33
2023-02-17T05:56:20.190Z,68.62
2023-02-17T05:58:46.973Z,68.45
2023-02-17T06:01:13.785Z,68.36
2023-02-17T06:03:40.574Z,68.57
2023-02-17T06:06:08.051Z,68.69
2023-02-17T06:08:35.380Z,68.75
2023-02-17T06:11:02.343Z,68.78
2023-02-17T06:13:29.160Z,68.69
2023-02-17T06:15:55.929Z,68.52
2023-02-17T06:18:22.828Z,68.51
2023-02-17T06:20:49.631Z,69.06
2023-02-17T06:23:16.711Z,69.10
2023-02-17T06:25:43.439Z,68.83
2023-02-17T06:28:10.293Z,68.74
2023-02-17T06:30:36.956Z,68.92
2023-02-17T06:33:03.807Z,69.09
2023-02-17T06:35:30.438Z,68.45
2023-02-17T06:37:57.227Z,68.62
2023-02-17T06:40:24.591Z,68.82
2023-02-17T06:42:51.388Z,68.90
2023-02-17T06:45:18.218Z,69.03
2023-02-17T06:47:44.989Z,68.86
2023-02-17T06:50:11.925Z,68.60
2023-02-17T06:52:39.086Z,68.79
2023-02-17T06:55:06.229Z,68.99
2023-02-17T06:57:32.959Z,68.92
2023-02-17T06:59:59.626Z,69.12
2023-02-17T07:02:26.476Z,68.98
2023-02-17T07:04:53.169Z,69.15
2023-02-17T07:07:19.893Z,69.08
2023-02-17T07:09:46.580Z,69.15
2023-02-17T07:12:13.428Z,69.19
2023-02-17T07:14:40.141Z,69.06
2023-02-17T07:17:06.950Z,69.38
2023-02-17T07:19:33.646Z,69.39
2023-02-17T07:22:00.925Z,69.44
2023-02-17T07:24:27.704Z,69.24
2023-02-17T07:26:56.158Z,69.42
2023-02-17T07:29:23.246Z,69.60
2023-02-17T07:31:50.034Z,69.66
2023-02-17T07:34:16.758Z,69.31
2023-02-17T07:36:43.575Z,69.56
2023-02-17T07:39:10.362Z,69.70
2023-02-17T07:41:37.168Z,69.66
2023-02-17T07:44:10.078Z,69.54
2023-02-17T07:46:39.665Z,69.45
2023-02-17T07:49:06.491Z,69.94
2023-02-17T07:51:33.371Z,69.73
2023-02-17T07:54:01.322Z,70.18
2023-02-17T07:56:30.071Z,69.67
2023-02-17T07:58:56.826Z,70.06
2023-02-17T08:01:24.953Z,69.78
2023-02-17T08:03:52.571Z,70.04
2023-02-17T08:06:22.455Z,70.16
2023-02-17T08:09:08.652Z,70.10
2023-02-17T08:11:54.415Z,69.65
2023-02-17T08:14:25.728Z,70.10
2023-02-17T08:16:52.867Z,69.76
2023-02-17T08:19:19.903Z,69.81
2023-02-17T08:21:47.012Z,70.00
2023-02-17T08:24:14.168Z,70.08
2023-02-17T08:26:40.931Z,70.01
2023-02-17T08:29:08.428Z,69.94
2023-02-17T08:31:36.494Z,69.90
2023-02-17T08:34:05.821Z,70.26
2023-02-17T08:36:32.690Z,70.02
2023-02-17T08:38:59.692Z,70.10
2023-02-17T08:41:32.692Z,70.65
2023-02-17T08:44:01.739Z,70.58
2023-02-17T08:46:29.518Z,70.76
2023-02-17T08:48:56.898Z,70.46
2023-02-17T08:51:27.916Z,70.70
2023-02-17T08:53:57.138Z,70.98
2023-02-17T08:56:25.159Z,70.57
2023-02-17T08:58:52.264Z,71.14
2023-02-17T09:01:19.510Z,71.09
2023-02-17T09:03:47.984Z,71.03
2023-02-17T09:06:15.821Z,70.72
2023-02-17T09:08:43.581Z,70.91
2023-02-17T09:11:10.636Z,71.17
2023-02-17T09:13:37.792Z,70.80
2023-02-17T09:16:05.159Z,71.16
2023-02-17T09:18:32.320Z,70.60
2023-02-17T09:21:00.553Z,71.07
2023-02-17T09:23:27.329Z,70.91
2023-02-17T09:26:05.736Z,70.91
2023-02-17T09:28:33.505Z,70.76
2023-02-17T09:31:11.583Z,70.76
2023-02-17T09:33:39.378Z,70.86
2023-02-17T09:36:07.883Z,70.67
2023-02-17T09:38:35.084Z,71.14
2023-02-17T09:41:43.170Z,70.86
2023-02-17T09:44:37.814Z,70.85
2023-02-17T09:47:10.047Z,70.82
2023-02-17T09:49:49.621Z,70.71
2023-02-17T09:52:38.025Z,70.94
2023-02-17T09:55:05.004Z,71.11
2023-02-17T09:57:40.206Z,71.09
2023-02-17T10:00:16.194Z,71.04
2023-02-17T10:02:48.308Z,71.15
2023-02-17T10:05:18.990Z,71.13
2023-02-17T10:07:45.703Z,71.04
2023-02-17T10:10:18.269Z,70.73
2023-02-17T10:12:49.305Z,71.06
2023-02-17T10:15:23.727Z,70.66
2023-02-17T10:18:08.115Z,70.60
2023-02-17T10:20:44.642Z,71.10
2023-02-17T10:23:20.880Z,70.91
2023-02-17T10:25:56.760Z,70.52
2023-02-17T10:28:42.422Z,70.89
2023-02-17T10:31:16.015Z,70.77
2023-02-17T10:34:03.296Z,70.80
2023-02-17T10:37:01.902Z,70.72
2023-02-17T10:39:28.637Z,70.45
2023-02-17T10:41:55.797Z,70.22
2023-02-17T10:44:24.002Z,70.10
2023-02-17T10:46:53.090Z,70.60
2023-02-17T10:49:32.172Z,70.29
2023-02-17T10:52:10.287Z,70.23
2023-02-17T10:54:44.249Z,70.08
2023-02-17T10:57:13.817Z,70.14
2023-02-17T10:59:43.976Z,70.12
2023-02-17T11:02:21.458Z,70.09
2023-02-17T11:04:50.556Z,70.45
2023-02-17T11:07:20.060Z,70.34
2023-02-17T11:09:49.720Z,69.91
2023-02-17T11:12:27.136Z,70.07
2023-02-17T11:14:55.094Z,70.05
2023-02-17T11:17:34.945Z,70.29
2023-02-17T11:20:28.108Z,69.82
2023-02-17T11:23:07.498Z,70.06
2023-02-17T11:25:37.805Z,69.93
2023-02-17T11:28:12.468Z,70.01
2023-02-17T11:30:40.451Z,70.05
2023-02-17T11:33:14.568Z,69.95
2023-02-17T11:35:41.801Z,69.91
2023-02-17T11:38:14.824Z,69.75
2023-02-17T11:40:41.975Z,69.87
2023-02-17T11:43:19.053Z,69.50
2023-02-17T11:45:54.673Z,69.40
2023-02-17T11:48:49.305Z,69.42
2023-02-17T11:51:51.255Z,69.02
2023-02-17T11:54:29.203Z,69.06
2023-02-17T11:57:11.787Z,68.97
2023-02-17T12:00:06.493Z,68.80
2023-02-17T12:03:13.674Z,69.01
2023-02-17T12:05:59.137Z,68.83
2023-02-17T12:08:47.727Z,69.19
2023-02-17T12:11:28.014Z,68.98
2023-02-17T12:14:42.825Z,68.57
2023-02-17T12:17:17.054Z,68.80
2023-02-17T12:19:59.453Z,68.56
2023-02-17T12:22:55.212Z,68.95
2023-02-17T12:25:29.137Z,68.87
2023-02-17T12:28:17.595Z,68.96
2023-02-17T12:31:00.790Z,68.86
2023-02-17T12:33:51.936Z,68.48
2023-02-17T12:36:19.811Z,68.36
2023-02-17T12:38:53.741Z,68.30
2023-02-17T12:41:25.749Z,68.78
2023-02-17T12:44:08.492Z,68.37
2023-02-17T12:46:40.395Z,68.72
2023-02-17T12:49:14.664Z,68.61
2023-02-17T12:51:45.118Z,68.63
2023-02-17T12:54:18.530Z,68.65
2023-02-17T12:57:05.393Z,68.66
2023-02-17T12:59:33.137Z,68.60
2023-02-17T13:02:16.467Z,68.57
2023-02-17T13:04:46.326Z,68.42
2023-02-17T13:07:16.474Z,68.30
2023-02-17T13:09:46.117Z,68.24
2023-02-17T13:12:22.107Z,67.99
2023-02-17T13:14:59.237Z,68.00
2023-02-17T13:17:32.188Z,68.12
2023-02-17T13:20:11.054Z,68.17
2023-02-17T13:22:44.862Z,68.07
2023-02-17T13:25:14.060Z,68.23
2023-02-17T13:27:40.935Z,68.13
2023-02-17T13:30:24.440Z,67.87
2023-02-17T13:33:27.880Z,67.78
2023-02-17T13:35:54.744Z,67.82
2023-02-17T13:38:32.238Z,67.74
2023-02-17T13:41:04.543Z,67.99
2023-02-17T13:43:31.568Z,67.70
2023-02-17T13:46:03.289Z,67.95
2023-02-17T13:48:32.538Z,68.33
2023-02-17T13:51:00.622Z,67.74
2023-02-17T13:53:32.102Z,67.85
2023-02-17T13:56:07.684Z,67.83
2023-02-17T13:58:41.899Z,67.94
2023-02-17T14:01:15.231Z,67.68
2023-02-17T14:03:47.290Z,67.87
2023-02-17T14:06:30.608Z,67.93
2023-02-17T14:08:57.619Z,67.77
2023-02-17T14:11:28.806Z,68.22
2023-02-17T14:13:57.474Z,68.02
2023-02-17T14:16:29.253Z,67.73
2023-02-17T14:19:10.281Z,67.79
2023-02-17T14:21:39.606Z,67.88
2023-02-17T14:24:06.753Z,68.33
2023-02-17T14:26:59.762Z,67.84
2023-02-17T14:29:26.707Z,68.21
2023-02-17T14:31:54.288Z,67.96
2023-02-17T14:34:21.039Z,68.13
2023-02-17T14:36:47.785Z,67.66
2023-02-17T14:39:15.933Z,67.97
2023-02-17T14:41:43.514Z,67.51
2023-02-17T14:44:10.321Z,67.89
2023-02-17T14:46:37.347Z,68.03
2023-02-17T14:49:04.526Z,67.55
2023-02-17T14:51:36.769Z,67.91
2023-02-17T14:54:13.032Z,67.87
2023-02-17T14:57:04.069Z,67.67
2023-02-17T14:59:30.852Z,67.49
2023-02-17T15:01:57.594Z,67.82
2023-02-17T15:04:24.452Z,67.72
2023-02-17T15:06:54.318Z,67.78
2023-02-17T15:09:29.380Z,67.68
2023-02-17T15:11:56.700Z,67.42
2023-02-17T15:14:23.461Z,67.74
2023-02-17T15:16:51.183Z,67.29
2023-02-17T15:19:20.829Z,67.70
2023-02-17T15:21:50.534Z,67.15
2023-02-17T15:24:20.095Z,67.64
2023-02-17T15:26:48.131Z,67.14
2023-02-17T15:29:23.120Z,67.24
2023-02-17T15:31:51.917Z,67.71
2023-02-17T15:34:20.957Z,67.68
2023-02-17T15:36:47.973Z,67.29
2023-02-17T15:39:17.430Z,67.61
2023-02-17T15:41:46.244Z,67.56
2023-02-17T15:44:18.721Z,67.79
2023-02-17T15:46:46.265Z,67.43
2023-02-17T15:49:13.371Z,67.82
2023-02-17T15:51:40.171Z,67.54
2023-02-17T15:54:06.947Z,67.95
2023-02-17T15:56:43.376Z,67.65
2023-02-17T15:59:24.742Z,67.81
2023-02-17T16:01:52.420Z,68.26
2023-02-17T16:04:19.523Z,68.10
2023-02-17T16:06:46.314Z,67.66
2023-02-17T16:09:13.280Z,68.05
2023-02-17T16:11:49.498Z,68.15
2023-02-17T16:14:32.396Z,67.50
2023-02-17T16:16:59.195Z,67.63
2023-02-17T16:19:26.037Z,67.96
2023-02-17T16:21:52.805Z,68.00
2023-02-17T16:24:19.519Z,67.60
2023-02-17T16:26:46.502Z,67.53
2023-02-17T16:29:23.120Z,67.84
2023-02-17T16:31:50.237Z,68.06
2023-02-17T16:34:20.869Z,67.60
2023-02-17T16:36:51.127Z,67.86
2023-02-17T16:39:20.298Z,67.82
2023-02-17T16:41:48.178Z,67.84
2023-02-17T16:44:16.564Z,68.09
2023-02-17T16:46:49.011Z,68.08
2023-02-17T16:49:33.533Z,67.86
2023-02-17T16:52:01.080Z,67.77
2023-02-17T16:54:27.890Z,68.21
2023-02-17T16:56:55.261Z,68.34
2023-02-17T16:59:24.209Z,68.05
2023-02-17T17:01:53.138Z,68.23
2023-02-17T17:04:20.785Z,67.98
2023-02-17T17:06:50.124Z,68.18
2023-02-17T17:09:21.269Z,67.86
2023-02-17T17:11:48.428Z,67.84
2023-02-17T17:14:15.399Z,67.88
2023-02-17T17:16:46.695Z,68.04
2023-02-17T17:19:13.735Z,68.17
2023-02-17T17:21:40.411Z,67.72
2023-02-17T17:24:07.198Z,67.75
2023-02-17T17:26:40.002Z,68.31
2023-02-17T17:29:07.866Z,68.44
2023-02-17T17:31:34.646Z,68.35
2023-02-17T17:34:01.500Z,68.37
2023-02-17T17:36:34.813Z,68.39
2023-02-17T17:39:03.540Z,68.16
2023-02-17T17:41:30.688Z,68.50
2023-02-17T17:43:57.978Z,68.27
2023-02-17T17:46:29.644Z,68.54
2023-02-17T17:48:58.937Z,68.53
2023-02-17T17:51:26.964Z,68.50
2023-02-17T17:53:53.917Z,69.01
2023-02-17T17:56:26.666Z,68.74
2023-02-17T17:58:54.071Z,68.86
2023-02-17T18:01:21.815Z,69.02
2023-02-17T18:03:50.745Z,68.72
2023-02-17T18:06:24.465Z,68.69
2023-02-17T18:08:52.613Z,69.13
2023-02-17T18:11:21.560Z,69.40
2023-02-17T18:13:50.777Z,69.29
2023-02-17T18:16:21.028Z,69.52
2023-02-17T18:18:48.730Z,69.28
2023-02-17T18:21:15.579Z,69.70
2023-02-17T18:23:42.397Z,69.80
2023-02-17T18:26:11.707Z,69.70
2023-02-17T18:28:38.946Z,69.50
2023-02-17T18:31:07.976Z,69.75
2023-02-17T18:33:34.874Z,69.71
2023-02-17T18:36:11.887Z,69.32
2023-02-17T18:38:39.041Z,69.52
2023-02-17T18:41:06.040Z,69.44
2023-02-17T18:43:33.088Z,69.25
2023-02-17T18:45:59.987Z,69.38
2023-02-17T18:48:26.907Z,69.71
2023-02-17T18:50:53.614Z,69.55
2023-02-17T18:53:20.466Z,69.56
2023-02-17T18:55:47.145Z,69.31
2023-02-17T18:58:14.664Z,69.76
2023-02-17T19:00:41.342Z,69.76
2023-02-17T19:03:08.114Z,69.45
2023-02-17T19:05:35.221Z,69.48
2023-02-17T19:08:02.079Z,69.88
2023-02-17T19:10:28.819Z,70.00
2023-02-17T19:12:55.576Z,69.61
2023-02-17T19:15:22.274Z,69.73
2023-02-17T19:17:49.061Z,69.97
2023-02-17T19:20:17.168Z,70.05
2023-02-17T19:22:44.167Z,69.57
2023-02-17T19:25:10.824Z,69.71
2023-02-17T19:27:42.082Z,69.57
2023-02-17T19:30:10.406Z,69.82
2023-02-17T19:32:37.184Z,69.88
2023-02-17T19:35:04.383Z,69.85
2023-02-17T19:37:31.210Z,69.77
2023-02-17T19:39:59.469Z,69.73
2023-02-17T19:42:26.182Z,69.84
2023-02-17T19:44:52.974Z,69.76
2023-02-17T19:47:19.728Z,69.67
2023-02-17T19:49:46.437Z,69.88
2023-02-17T19:52:13.296Z,69.66
2023-02-17T19:54:40.059Z,69.88
2023-02-17T19:57:06.847Z,69.49
2023-02-17T19:59:33.835Z,69.62
2023-02-17T20:02:00.741Z,70.12
2023-02-17T20:04:28.025Z,70.08
2023-02-17T20:06:55.057Z,70.39
2023-02-17T20:09:22.805Z,69.83
2023-02-17T20:11:53.044Z,70.20
2023-02-17T20:14:20.770Z,70.08
2023-02-17T20:16:48.568Z,69.96
2023-02-17T20:19:15.835Z,70.11
2023-02-17T20:21:44.955Z,70.10
2023-02-17T20:24:13.160Z,70.18
2023-02-17T20:26:43.236Z,70.00
2023-02-17T20:29:10.903Z,70.15
2023-02-17T20:31:38.723Z,70.05
2023-02-17T20:34:08.033Z,70.19
2023-02-17T20:36:34.893Z,70.42
2023-02-17T20:39:01.800Z,70.22
2023-02-17T20:41:28.612Z,70.19
2023-02-17T20:43:55.300Z,70.44
2023-02-17T20:46:24.658Z,70.29
2023-02-17T20:48:51.894Z,70.50
2023-02-17T20:51:19.748Z,70.32
2023-02-17T20:53:46.698Z,70.64
2023-02-17T20:56:19.797Z,70.58
2023-02-17T20:58:47.198Z,70.76
2023-02-17T21:01:14.369Z,70.80
2023-02-17T21:03:41.375Z,70.80
2023-02-17T21:06:22.030Z,70.37
2023-02-17T21:08:51.492Z,70.94
2023-02-17T21:11:18.474Z,70.95
2023-02-17T21:13:45.535Z,70.52
2023-02-17T21:16:14.527Z,70.55
2023-02-17T21:18:41.477Z,70.72
2023-02-17T21:21:08.401Z,70.93
2023-02-17T21:23:35.174Z,71.18
2023-02-17T21:26:01.868Z,70.78
2023-02-17T21:28:28.673Z,70.78
2023-02-17T21:30:55.455Z,71.16
2023-02-17T21:33:22.326Z,70.92
2023-02-17T21:35:49.500Z,71.00
2023-02-17T21:38:16.909Z,71.13
2023-02-17T21:40:43.565Z,70.89
2023-02-17T21:43:30.339Z,70.94
2023-02-17T21:45:57.211Z,71.33
2023-02-17T21:48:23.966Z,70.89
2023-02-17T21:50:50.798Z,71.34
2023-02-17T21:53:17.470Z,71.32
2023-02-17T21:55:44.280Z,71.30
2023-02-17T21:58:10.960Z,71.04
2023-02-17T22:00:37.864Z,71.35
2023-02-17T22:03:04.509Z,70.89
2023-02-17T22:05:32.085Z,71.37
2023-02-17T22:07:58.765Z,71.05
2023-02-17T22:10:25.506Z,71.41
2023-02-17T22:12:53.068Z,71.13
2023-02-17T22:15:19.869Z,71.37
2023-02-17T22:17:48.031Z,71.29
2023-02-17T22:20:15.524Z,71.11
2023-02-17T22:22:42.217Z,71.01
2023-02-17T22:25:08.977Z,71.01
2023-02-17T22:27:35.890Z,71.29
2023-02-17T22:30:03.121Z,71.10
2023-02-17T22:32:29.906Z,71.14
2023-02-17T22:34:56.707Z,71.07
2023-02-17T22:37:23.452Z,71.13
2023-02-17T22:39:53.761Z,71.44
2023-02-17T22:42:21.338Z,71.08
2023-02-17T22:44:48.146Z,71.15
2023-02-17T22:47:15.411Z,71.56
2023-02-17T22:49:42.545Z,71.45
2023-02-17T22:52:10.020Z,71.47
2023-02-17T22:54:38.600Z,71.29
2023-02-17T22:57:05.414Z,71.15
2023-02-17T22:59:32.160Z,71.14
2023-02-17T23:01:59.650Z,71.38
2023-02-17T23:04:26.696Z,71.19
2023-02-17T23:06:53.442Z,71.53
2023-02-17T23:09:20.244Z,71.40
2023-02-17T23:11:50.934Z,71.62
2023-02-17T23:14:26.735Z,71.55
2023-02-17T23:16:55.808Z,71.52
2023-02-17T23:19:24.128Z,71.59
2023-02-17T23:21:54.077Z,71.19
2023-02-17T23:24:21.786Z,71.30
2023-02-17T23:26:49.482Z,71.11
2023-02-17T23:29:17.244Z,71.57
2023-02-17T23:31:44.325Z,71.41
2023-02-17T23:34:13.166Z,71.15
2023-02-17T23:36:41.362Z,71.19
2023-02-17T23:39:08.456Z,71.22
2023-02-17T23:41:37.025Z,71.18
2023-02-17T23:44:04.930Z,71.48
2023-02-17T23:46:31.718Z,71.42
2023-02-17T23:48:58.414Z,71.53
2023-02-17T23:51:25.493Z,71.39
2023-02-17T23:53:52.182Z,71.30
2023-02-17T23:56:26.024Z,71.19
2023-02-17T23:58:52.764Z,71.15
